sensor_id;sensor_type;location;lat;lon;timestamp;P1;durP1;ratioP1;P2;durP2;ratioP2
13847;SDS011;6994;49.752;6.094;2022-08-19T00:00:19;12.75;;;11.57;;
13847;SDS011;6994;49.752;6.094;2022-08-19T00:02:46;9.93;;;9.02;;
13847;SDS011;6994;49.752;6.094;2022-08-19T00:05:14;11.07;;;9.90;;
13847;SDS011;6994;49.752;6.094;2022-08-19T00:07:41;10.45;;;9.55;;
13847;SDS011;6994;49.752;6.094;2022-08-19T00:10:08;10.02;;;9.02;;
13847;SDS011;6994;49.752;6.094;2022-08-19T00:12:35;11.75;;;10.63;;
13847;SDS011;6994;49.752;6.094;2022-08-19T00:15:02;10.85;;;9.75;;
13847;SDS011;6994;49.752;6.094;2022-08-19T00:17:29;11.57;;;10.45;;
13847;SDS011;6994;49.752;6.094;2022-08-19T00:19:57;11.32;;;10.27;;
13847;SDS011;6994;49.752;6.094;2022-08-19T00:22:24;11.40;;;10.40;;
13847;SDS011;6994;49.752;6.094;2022-08-19T00:24:52;11.85;;;10.75;;
13847;SDS011;6994;49.752;6.094;2022-08-19T00:27:19;14.13;;;12.73;;
13847;SDS011;6994;49.752;6.094;2022-08-19T00:29:46;11.45;;;10.38;;
13847;SDS011;6994;49.752;6.094;2022-08-19T00:32:13;12.05;;;10.95;;
13847;SDS011;6994;49.752;6.094;2022-08-19T00:34:40;10.95;;;9.90;;
13847;SDS011;6994;49.752;6.094;2022-08-19T00:37:08;12.43;;;9.90;;
13847;SDS011;6994;49.752;6.094;2022-08-19T00:39:35;11.27;;;10.27;;
13847;SDS011;6994;49.752;6.094;2022-08-19T00:42:02;12.68;;;11.50;;
13847;SDS011;6994;49.752;6.094;2022-08-19T00:44:29;11.45;;;10.43;;
13847;SDS011;6994;49.752;6.094;2022-08-19T00:46:57;11.73;;;10.50;;
13847;SDS011;6994;49.752;6.094;2022-08-19T00:49:28;12.15;;;10.80;;
13847;SDS011;6994;49.752;6.094;2022-08-19T00:51:55;11.23;;;10.13;;
13847;SDS011;6994;49.752;6.094;2022-08-19T00:54:24;10.50;;;9.50;;
13847;SDS011;6994;49.752;6.094;2022-08-19T00:56:52;10.43;;;9.43;;
13847;SDS011;6994;49.752;6.094;2022-08-19T00:59:20;10.75;;;9.75;;
13847;SDS011;6994;49.752;6.094;2022-08-19T01:01:47;11.38;;;10.27;;
13847;SDS011;6994;49.752;6.094;2022-08-19T01:04:14;10.70;;;9.68;;
13847;SDS011;6994;49.752;6.094;2022-08-19T01:06:41;10.90;;;9.90;;
13847;SDS011;6994;49.752;6.094;2022-08-19T01:09:09;10.27;;;9.27;;
13847;SDS011;6994;49.752;6.094;2022-08-19T01:11:38;12.23;;;10.93;;
13847;SDS011;6994;49.752;6.094;2022-08-19T01:14:04;10.88;;;9.90;;
13847;SDS011;6994;49.752;6.094;2022-08-19T01:16:31;12.73;;;11.63;;
13847;SDS011;6994;49.752;6.094;2022-08-19T01:18:58;14.07;;;12.75;;
13847;SDS011;6994;49.752;6.094;2022-08-19T01:21:27;13.50;;;11.88;;
13847;SDS011;6994;49.752;6.094;2022-08-19T01:23:52;11.48;;;10.48;;
13847;SDS011;6994;49.752;6.094;2022-08-19T01:26:20;11.55;;;10.35;;
13847;SDS011;6994;49.752;6.094;2022-08-19T01:28:48;11.18;;;10.18;;
13847;SDS011;6994;49.752;6.094;2022-08-19T01:31:16;11.20;;;10.10;;
13847;SDS011;6994;49.752;6.094;2022-08-19T01:33:41;11.68;;;10.48;;
13847;SDS011;6994;49.752;6.094;2022-08-19T01:36:10;11.68;;;10.57;;
13847;SDS011;6994;49.752;6.094;2022-08-19T01:38:38;11.60;;;10.50;;
13847;SDS011;6994;49.752;6.094;2022-08-19T01:41:03;12.13;;;11.07;;
13847;SDS011;6994;49.752;6.094;2022-08-19T01:43:30;12.13;;;10.75;;
13847;SDS011;6994;49.752;6.094;2022-08-19T01:45:57;13.68;;;12.50;;
13847;SDS011;6994;49.752;6.094;2022-08-19T01:48:25;11.73;;;10.63;;
13847;SDS011;6994;49.752;6.094;2022-08-19T01:50:52;12.50;;;11.30;;
13847;SDS011;6994;49.752;6.094;2022-08-19T01:53:19;12.48;;;11.27;;
13847;SDS011;6994;49.752;6.094;2022-08-19T01:55:46;11.88;;;10.70;;
13847;SDS011;6994;49.752;6.094;2022-08-19T01:58:18;11.98;;;10.77;;
13847;SDS011;6994;49.752;6.094;2022-08-19T02:00:42;12.10;;;10.85;;
13847;SDS011;6994;49.752;6.094;2022-08-19T02:03:09;11.15;;;10.15;;
13847;SDS011;6994;49.752;6.094;2022-08-19T02:05:36;11.98;;;10.88;;
13847;SDS011;6994;49.752;6.094;2022-08-19T02:08:03;14.05;;;12.75;;
13847;SDS011;6994;49.752;6.094;2022-08-19T02:10:30;12.50;;;11.40;;
13847;SDS011;6994;49.752;6.094;2022-08-19T02:12:58;14.52;;;11.05;;
13847;SDS011;6994;49.752;6.094;2022-08-19T02:15:25;11.95;;;10.82;;
13847;SDS011;6994;49.752;6.094;2022-08-19T02:17:53;11.32;;;10.30;;
13847;SDS011;6994;49.752;6.094;2022-08-19T02:20:20;12.23;;;10.80;;
13847;SDS011;6994;49.752;6.094;2022-08-19T02:22:47;12.18;;;10.93;;
13847;SDS011;6994;49.752;6.094;2022-08-19T02:25:15;11.43;;;10.23;;
13847;SDS011;6994;49.752;6.094;2022-08-19T02:27:42;12.52;;;11.30;;
13847;SDS011;6994;49.752;6.094;2022-08-19T02:30:14;12.65;;;11.48;;
13847;SDS011;6994;49.752;6.094;2022-08-19T02:32:37;12.40;;;11.05;;
13847;SDS011;6994;49.752;6.094;2022-08-19T02:35:05;12.30;;;11.05;;
13847;SDS011;6994;49.752;6.094;2022-08-19T02:37:32;12.32;;;11.15;;
13847;SDS011;6994;49.752;6.094;2022-08-19T02:40:17;14.55;;;13.13;;
13847;SDS011;6994;49.752;6.094;2022-08-19T02:42:45;13.23;;;11.90;;
13847;SDS011;6994;49.752;6.094;2022-08-19T02:45:13;13.88;;;11.93;;
13847;SDS011;6994;49.752;6.094;2022-08-19T02:47:39;15.10;;;13.73;;
13847;SDS011;6994;49.752;6.094;2022-08-19T02:50:06;12.40;;;11.20;;
13847;SDS011;6994;49.752;6.094;2022-08-19T02:52:34;13.93;;;12.63;;
13847;SDS011;6994;49.752;6.094;2022-08-19T02:55:02;12.95;;;11.75;;
13847;SDS011;6994;49.752;6.094;2022-08-19T02:57:29;11.95;;;10.95;;
13847;SDS011;6994;49.752;6.094;2022-08-19T02:59:56;12.50;;;11.20;;
13847;SDS011;6994;49.752;6.094;2022-08-19T03:02:23;14.15;;;12.85;;
13847;SDS011;6994;49.752;6.094;2022-08-19T03:04:51;12.63;;;11.32;;
13847;SDS011;6994;49.752;6.094;2022-08-19T03:07:18;11.65;;;10.45;;
13847;SDS011;6994;49.752;6.094;2022-08-19T03:09:45;12.13;;;10.98;;
13847;SDS011;6994;49.752;6.094;2022-08-19T03:12:13;12.35;;;11.15;;
13847;SDS011;6994;49.752;6.094;2022-08-19T03:14:40;11.50;;;10.50;;
13847;SDS011;6994;49.752;6.094;2022-08-19T03:17:07;11.07;;;10.07;;
13847;SDS011;6994;49.752;6.094;2022-08-19T03:19:34;12.60;;;11.43;;
13847;SDS011;6994;49.752;6.094;2022-08-19T03:22:02;10.98;;;9.98;;
13847;SDS011;6994;49.752;6.094;2022-08-19T03:24:29;12.85;;;11.55;;
13847;SDS011;6994;49.752;6.094;2022-08-19T03:26:57;11.63;;;10.57;;
13847;SDS011;6994;49.752;6.094;2022-08-19T03:29:24;11.88;;;10.85;;
13847;SDS011;6994;49.752;6.094;2022-08-19T03:31:51;12.32;;;11.23;;
13847;SDS011;6994;49.752;6.094;2022-08-19T03:34:20;11.55;;;10.45;;
13847;SDS011;6994;49.752;6.094;2022-08-19T03:36:49;11.95;;;10.82;;
13847;SDS011;6994;49.752;6.094;2022-08-19T03:39:16;11.68;;;10.57;;
13847;SDS011;6994;49.752;6.094;2022-08-19T03:41:44;13.05;;;11.85;;
13847;SDS011;6994;49.752;6.094;2022-08-19T03:44:11;11.57;;;10.57;;
13847;SDS011;6994;49.752;6.094;2022-08-19T03:46:38;13.70;;;11.88;;
13847;SDS011;6994;49.752;6.094;2022-08-19T03:49:05;13.10;;;11.90;;
13847;SDS011;6994;49.752;6.094;2022-08-19T03:51:37;15.18;;;13.77;;
13847;SDS011;6994;49.752;6.094;2022-08-19T03:54:04;12.20;;;11.10;;
13847;SDS011;6994;49.752;6.094;2022-08-19T03:56:29;11.57;;;10.48;;
13847;SDS011;6994;49.752;6.094;2022-08-19T03:58:57;12.18;;;11.07;;
13847;SDS011;6994;49.752;6.094;2022-08-19T04:01:25;11.80;;;10.43;;
13847;SDS011;6994;49.752;6.094;2022-08-19T04:03:51;11.75;;;10.63;;
13847;SDS011;6994;49.752;6.094;2022-08-19T04:06:21;13.65;;;12.35;;
13847;SDS011;6994;49.752;6.094;2022-08-19T04:08:48;12.02;;;10.90;;
13847;SDS011;6994;49.752;6.094;2022-08-19T04:11:16;12.55;;;10.15;;
13847;SDS011;6994;49.752;6.094;2022-08-19T04:13:42;12.23;;;11.00;;
13847;SDS011;6994;49.752;6.094;2022-08-19T04:16:10;12.32;;;11.12;;
13847;SDS011;6994;49.752;6.094;2022-08-19T04:18:37;15.15;;;13.52;;
13847;SDS011;6994;49.752;6.094;2022-08-19T04:21:04;12.13;;;11.02;;
13847;SDS011;6994;49.752;6.094;2022-08-19T04:23:31;11.85;;;10.68;;
13847;SDS011;6994;49.752;6.094;2022-08-19T04:25:58;13.93;;;12.75;;
13847;SDS011;6994;49.752;6.094;2022-08-19T04:28:25;12.85;;;11.45;;
13847;SDS011;6994;49.752;6.094;2022-08-19T04:30:53;14.98;;;13.57;;
13847;SDS011;6994;49.752;6.094;2022-08-19T04:33:21;12.32;;;11.27;;
13847;SDS011;6994;49.752;6.094;2022-08-19T04:35:47;12.43;;;11.12;;
13847;SDS011;6994;49.752;6.094;2022-08-19T04:38:20;11.63;;;10.52;;
13847;SDS011;6994;49.752;6.094;2022-08-19T04:40:46;11.68;;;10.70;;
13847;SDS011;6994;49.752;6.094;2022-08-19T04:43:27;13.93;;;12.73;;
13847;SDS011;6994;49.752;6.094;2022-08-19T04:45:54;12.30;;;11.20;;
13847;SDS011;6994;49.752;6.094;2022-08-19T04:48:21;14.85;;;13.50;;
13847;SDS011;6994;49.752;6.094;2022-08-19T04:50:48;13.25;;;11.93;;
13847;SDS011;6994;49.752;6.094;2022-08-19T04:53:15;12.55;;;11.27;;
13847;SDS011;6994;49.752;6.094;2022-08-19T04:55:43;16.20;;;13.60;;
13847;SDS011;6994;49.752;6.094;2022-08-19T04:58:10;13.35;;;12.15;;
13847;SDS011;6994;49.752;6.094;2022-08-19T05:00:38;15.23;;;13.73;;
13847;SDS011;6994;49.752;6.094;2022-08-19T05:03:04;12.45;;;11.35;;
13847;SDS011;6994;49.752;6.094;2022-08-19T05:05:31;12.60;;;11.50;;
13847;SDS011;6994;49.752;6.094;2022-08-19T05:07:59;12.30;;;11.20;;
13847;SDS011;6994;49.752;6.094;2022-08-19T05:10:26;11.77;;;10.73;;
13847;SDS011;6994;49.752;6.094;2022-08-19T05:12:53;14.55;;;13.23;;
13847;SDS011;6994;49.752;6.094;2022-08-19T05:15:21;13.62;;;12.43;;
13847;SDS011;6994;49.752;6.094;2022-08-19T05:17:48;12.68;;;11.57;;
13847;SDS011;6994;49.752;6.094;2022-08-19T05:20:34;13.23;;;11.93;;
13847;SDS011;6994;49.752;6.094;2022-08-19T05:23:19;16.45;;;14.95;;
13847;SDS011;6994;49.752;6.094;2022-08-19T05:25:46;14.00;;;12.70;;
13847;SDS011;6994;49.752;6.094;2022-08-19T05:28:13;13.05;;;11.82;;
13847;SDS011;6994;49.752;6.094;2022-08-19T05:30:41;13.93;;;12.60;;
13847;SDS011;6994;49.752;6.094;2022-08-19T05:33:08;14.50;;;13.00;;
13847;SDS011;6994;49.752;6.094;2022-08-19T05:35:36;13.62;;;12.00;;
13847;SDS011;6994;49.752;6.094;2022-08-19T05:38:02;12.85;;;11.73;;
13847;SDS011;6994;49.752;6.094;2022-08-19T05:40:29;13.35;;;11.95;;
13847;SDS011;6994;49.752;6.094;2022-08-19T05:42:57;13.07;;;11.88;;
13847;SDS011;6994;49.752;6.094;2022-08-19T05:45:24;12.70;;;11.52;;
13847;SDS011;6994;49.752;6.094;2022-08-19T05:47:51;11.88;;;10.68;;
13847;SDS011;6994;49.752;6.094;2022-08-19T05:50:18;12.37;;;11.27;;
13847;SDS011;6994;49.752;6.094;2022-08-19T05:52:45;12.95;;;11.65;;
13847;SDS011;6994;49.752;6.094;2022-08-19T05:55:13;15.23;;;13.82;;
13847;SDS011;6994;49.752;6.094;2022-08-19T05:57:41;13.77;;;12.40;;
13847;SDS011;6994;49.752;6.094;2022-08-19T06:00:09;12.13;;;10.93;;
13847;SDS011;6994;49.752;6.094;2022-08-19T06:02:37;14.07;;;12.68;;
13847;SDS011;6994;49.752;6.094;2022-08-19T06:05:05;11.82;;;10.70;;
13847;SDS011;6994;49.752;6.094;2022-08-19T06:07:32;21.25;;;11.63;;
13847;SDS011;6994;49.752;6.094;2022-08-19T06:09:59;13.85;;;12.55;;
13847;SDS011;6994;49.752;6.094;2022-08-19T06:12:30;15.90;;;14.52;;
13847;SDS011;6994;49.752;6.094;2022-08-19T06:14:55;13.88;;;12.57;;
13847;SDS011;6994;49.752;6.094;2022-08-19T06:17:22;12.88;;;11.68;;
13847;SDS011;6994;49.752;6.094;2022-08-19T06:19:49;12.13;;;10.93;;
13847;SDS011;6994;49.752;6.094;2022-08-19T06:22:16;13.02;;;11.93;;
13847;SDS011;6994;49.752;6.094;2022-08-19T06:24:43;13.10;;;12.00;;
13847;SDS011;6994;49.752;6.094;2022-08-19T06:27:11;13.98;;;12.48;;
13847;SDS011;6994;49.752;6.094;2022-08-19T06:29:38;13.75;;;12.35;;
13847;SDS011;6994;49.752;6.094;2022-08-19T06:32:05;13.38;;;12.07;;
13847;SDS011;6994;49.752;6.094;2022-08-19T06:34:33;12.90;;;11.70;;
13847;SDS011;6994;49.752;6.094;2022-08-19T06:37:00;13.48;;;12.18;;
13847;SDS011;6994;49.752;6.094;2022-08-19T06:39:30;14.43;;;12.70;;
13847;SDS011;6994;49.752;6.094;2022-08-19T06:41:57;13.80;;;12.45;;
13847;SDS011;6994;49.752;6.094;2022-08-19T06:44:24;14.02;;;12.70;;
13847;SDS011;6994;49.752;6.094;2022-08-19T06:46:51;16.67;;;15.18;;
13847;SDS011;6994;49.752;6.094;2022-08-19T06:49:18;14.52;;;13.13;;
13847;SDS011;6994;49.752;6.094;2022-08-19T06:51:46;14.45;;;13.05;;
13847;SDS011;6994;49.752;6.094;2022-08-19T06:54:13;15.18;;;13.70;;
13847;SDS011;6994;49.752;6.094;2022-08-19T06:56:40;15.93;;;13.77;;
13847;SDS011;6994;49.752;6.094;2022-08-19T06:59:08;14.77;;;13.48;;
13847;SDS011;6994;49.752;6.094;2022-08-19T07:01:39;14.52;;;13.15;;
13847;SDS011;6994;49.752;6.094;2022-08-19T07:04:01;15.77;;;14.27;;
13847;SDS011;6994;49.752;6.094;2022-08-19T07:06:29;18.83;;;17.00;;
13847;SDS011;6994;49.752;6.094;2022-08-19T07:08:57;16.37;;;14.82;;
13847;SDS011;6994;49.752;6.094;2022-08-19T07:11:24;18.05;;;15.07;;
13847;SDS011;6994;49.752;6.094;2022-08-19T07:13:51;20.48;;;18.60;;
13847;SDS011;6994;49.752;6.094;2022-08-19T07:16:19;18.20;;;16.50;;
13847;SDS011;6994;49.752;6.094;2022-08-19T07:18:46;19.15;;;17.25;;
13847;SDS011;6994;49.752;6.094;2022-08-19T07:21:17;18.10;;;16.42;;
13847;SDS011;6994;49.752;6.094;2022-08-19T07:23:46;18.80;;;16.95;;
13847;SDS011;6994;49.752;6.094;2022-08-19T07:26:15;19.58;;;17.58;;
13847;SDS011;6994;49.752;6.094;2022-08-19T07:28:40;18.10;;;16.30;;
13847;SDS011;6994;49.752;6.094;2022-08-19T07:31:08;17.83;;;15.88;;
13847;SDS011;6994;49.752;6.094;2022-08-19T07:33:35;17.92;;;16.23;;
13847;SDS011;6994;49.752;6.094;2022-08-19T07:36:05;20.85;;;16.85;;
13847;SDS011;6994;49.752;6.094;2022-08-19T07:38:33;18.30;;;16.48;;
13847;SDS011;6994;49.752;6.094;2022-08-19T07:41:00;18.60;;;16.70;;
13847;SDS011;6994;49.752;6.094;2022-08-19T07:43:27;17.12;;;15.50;;
13847;SDS011;6994;49.752;6.094;2022-08-19T07:45:54;19.77;;;17.90;;
13847;SDS011;6994;49.752;6.094;2022-08-19T07:48:25;16.62;;;14.85;;
13847;SDS011;6994;49.752;6.094;2022-08-19T07:50:52;17.35;;;15.57;;
13847;SDS011;6994;49.752;6.094;2022-08-19T07:53:18;18.35;;;16.58;;
13847;SDS011;6994;49.752;6.094;2022-08-19T07:55:46;18.33;;;16.37;;
13847;SDS011;6994;49.752;6.094;2022-08-19T07:58:14;19.55;;;17.58;;
13847;SDS011;6994;49.752;6.094;2022-08-19T08:00:41;20.45;;;18.60;;
13847;SDS011;6994;49.752;6.094;2022-08-19T08:03:07;22.85;;;20.65;;
13847;SDS011;6994;49.752;6.094;2022-08-19T08:05:35;18.62;;;16.70;;
13847;SDS011;6994;49.752;6.094;2022-08-19T08:08:21;17.77;;;16.08;;
13847;SDS011;6994;49.752;6.094;2022-08-19T08:11:04;17.45;;;15.23;;
13847;SDS011;6994;49.752;6.094;2022-08-19T08:13:30;18.85;;;17.15;;
13847;SDS011;6994;49.752;6.094;2022-08-19T08:15:57;20.90;;;19.00;;
13847;SDS011;6994;49.752;6.094;2022-08-19T08:18:25;18.80;;;17.02;;
13847;SDS011;6994;49.752;6.094;2022-08-19T08:20:53;18.08;;;16.37;;
13847;SDS011;6994;49.752;6.094;2022-08-19T08:23:20;18.30;;;16.52;;
13847;SDS011;6994;49.752;6.094;2022-08-19T08:25:50;17.15;;;15.65;;
13847;SDS011;6994;49.752;6.094;2022-08-19T08:28:17;15.82;;;14.32;;
13847;SDS011;6994;49.752;6.094;2022-08-19T08:30:45;16.77;;;15.18;;
13847;SDS011;6994;49.752;6.094;2022-08-19T08:33:17;17.65;;;15.82;;
13847;SDS011;6994;49.752;6.094;2022-08-19T08:35:44;16.55;;;14.77;;
13847;SDS011;6994;49.752;6.094;2022-08-19T08:38:13;16.12;;;14.63;;
13847;SDS011;6994;49.752;6.094;2022-08-19T08:43:19;16.65;;;15.05;;
13847;SDS011;6994;49.752;6.094;2022-08-19T08:46:35;17.50;;;15.85;;
13847;SDS011;6994;49.752;6.094;2022-08-19T08:48:22;20.98;;;19.00;;
13847;SDS011;6994;49.752;6.094;2022-08-19T08:50:48;18.75;;;16.70;;
13847;SDS011;6994;49.752;6.094;2022-08-19T08:53:16;17.02;;;14.95;;
13847;SDS011;6994;49.752;6.094;2022-08-19T08:55:42;19.33;;;17.52;;
13847;SDS011;6994;49.752;6.094;2022-08-19T08:58:10;18.50;;;16.83;;
13847;SDS011;6994;49.752;6.094;2022-08-19T09:00:37;16.48;;;14.98;;
13847;SDS011;6994;49.752;6.094;2022-08-19T09:03:06;16.02;;;14.60;;
13847;SDS011;6994;49.752;6.094;2022-08-19T09:05:45;15.57;;;14.10;;
13847;SDS011;6994;49.752;6.094;2022-08-19T09:08:08;17.55;;;15.85;;
13847;SDS011;6994;49.752;6.094;2022-08-19T09:10:37;15.68;;;14.07;;
13847;SDS011;6994;49.752;6.094;2022-08-19T09:13:17;16.55;;;14.85;;
13847;SDS011;6994;49.752;6.094;2022-08-19T09:16:00;19.48;;;17.62;;
13847;SDS011;6994;49.752;6.094;2022-08-19T09:18:25;17.92;;;16.33;;
13847;SDS011;6994;49.752;6.094;2022-08-19T09:20:52;17.27;;;15.68;;
13847;SDS011;6994;49.752;6.094;2022-08-19T09:23:20;17.23;;;15.73;;
13847;SDS011;6994;49.752;6.094;2022-08-19T09:25:47;17.17;;;15.57;;
13847;SDS011;6994;49.752;6.094;2022-08-19T09:28:14;17.08;;;15.35;;
13847;SDS011;6994;49.752;6.094;2022-08-19T09:30:41;16.80;;;15.10;;
13847;SDS011;6994;49.752;6.094;2022-08-19T09:33:08;16.75;;;15.07;;
13847;SDS011;6994;49.752;6.094;2022-08-19T09:35:36;14.85;;;13.35;;
13847;SDS011;6994;49.752;6.094;2022-08-19T09:38:04;17.75;;;16.15;;
13847;SDS011;6994;49.752;6.094;2022-08-19T09:40:31;17.35;;;15.75;;
13847;SDS011;6994;49.752;6.094;2022-08-19T09:42:58;14.68;;;13.20;;
13847;SDS011;6994;49.752;6.094;2022-08-19T09:45:25;18.98;;;16.98;;
13847;SDS011;6994;49.752;6.094;2022-08-19T09:47:52;16.87;;;15.13;;
13847;SDS011;6994;49.752;6.094;2022-08-19T09:50:20;17.52;;;15.80;;
13847;SDS011;6994;49.752;6.094;2022-08-19T09:52:47;15.30;;;13.88;;
13847;SDS011;6994;49.752;6.094;2022-08-19T09:55:14;15.32;;;14.02;;
13847;SDS011;6994;49.752;6.094;2022-08-19T09:57:41;17.05;;;15.45;;
13847;SDS011;6994;49.752;6.094;2022-08-19T10:00:09;16.15;;;14.48;;
13847;SDS011;6994;49.752;6.094;2022-08-19T10:02:46;14.90;;;13.50;;
13847;SDS011;6994;49.752;6.094;2022-08-19T10:05:14;14.77;;;13.38;;
13847;SDS011;6994;49.752;6.094;2022-08-19T10:07:59;15.93;;;14.20;;
13847;SDS011;6994;49.752;6.094;2022-08-19T10:10:27;17.40;;;15.43;;
13847;SDS011;6994;49.752;6.094;2022-08-19T10:12:54;14.98;;;13.20;;
13847;SDS011;6994;49.752;6.094;2022-08-19T10:15:21;16.80;;;15.10;;
13847;SDS011;6994;49.752;6.094;2022-08-19T10:17:49;16.37;;;14.73;;
13847;SDS011;6994;49.752;6.094;2022-08-19T10:20:16;16.37;;;14.68;;
13847;SDS011;6994;49.752;6.094;2022-08-19T10:22:43;15.95;;;14.43;;
13847;SDS011;6994;49.752;6.094;2022-08-19T10:25:10;16.50;;;13.13;;
13847;SDS011;6994;49.752;6.094;2022-08-19T10:27:38;15.32;;;13.82;;
13847;SDS011;6994;49.752;6.094;2022-08-19T10:30:05;16.05;;;14.40;;
13847;SDS011;6994;49.752;6.094;2022-08-19T10:32:32;19.37;;;14.68;;
13847;SDS011;6994;49.752;6.094;2022-08-19T10:34:59;15.90;;;13.80;;
13847;SDS011;6994;49.752;6.094;2022-08-19T10:37:26;15.88;;;14.30;;
13847;SDS011;6994;49.752;6.094;2022-08-19T10:39:54;14.20;;;12.77;;
13847;SDS011;6994;49.752;6.094;2022-08-19T10:42:21;13.60;;;11.60;;
13847;SDS011;6994;49.752;6.094;2022-08-19T10:44:48;13.10;;;10.98;;
13847;SDS011;6994;49.752;6.094;2022-08-19T10:47:15;13.57;;;12.15;;
13847;SDS011;6994;49.752;6.094;2022-08-19T10:49:43;12.95;;;11.65;;
13847;SDS011;6994;49.752;6.094;2022-08-19T10:52:28;14.98;;;13.48;;
13847;SDS011;6994;49.752;6.094;2022-08-19T10:55:01;15.65;;;14.25;;
13847;SDS011;6994;49.752;6.094;2022-08-19T10:57:46;14.18;;;12.20;;
13847;SDS011;6994;49.752;6.094;2022-08-19T11:00:13;15.65;;;14.15;;
13847;SDS011;6994;49.752;6.094;2022-08-19T11:02:41;13.25;;;11.85;;
13847;SDS011;6994;49.752;6.094;2022-08-19T11:05:08;15.75;;;12.82;;
13847;SDS011;6994;49.752;6.094;2022-08-19T11:07:35;14.75;;;12.70;;
13847;SDS011;6994;49.752;6.094;2022-08-19T11:10:02;11.95;;;10.82;;
13847;SDS011;6994;49.752;6.094;2022-08-19T11:12:29;13.35;;;11.70;;
13847;SDS011;6994;49.752;6.094;2022-08-19T11:14:57;15.15;;;13.65;;
13847;SDS011;6994;49.752;6.094;2022-08-19T11:17:24;14.68;;;13.27;;
13847;SDS011;6994;49.752;6.094;2022-08-19T11:19:51;9.23;;;8.32;;
13847;SDS011;6994;49.752;6.094;2022-08-19T11:22:18;12.20;;;9.00;;
13847;SDS011;6994;49.752;6.094;2022-08-19T11:24:46;6.00;;;5.40;;
13847;SDS011;6994;49.752;6.094;2022-08-19T11:27:14;7.20;;;6.50;;
13847;SDS011;6994;49.752;6.094;2022-08-19T11:29:42;7.47;;;6.78;;
13847;SDS011;6994;49.752;6.094;2022-08-19T11:32:10;7.10;;;6.40;;
13847;SDS011;6994;49.752;6.094;2022-08-19T11:34:37;9.07;;;8.20;;
13847;SDS011;6994;49.752;6.094;2022-08-19T11:37:04;9.50;;;8.50;;
13847;SDS011;6994;49.752;6.094;2022-08-19T11:39:32;7.35;;;6.72;;
13847;SDS011;6994;49.752;6.094;2022-08-19T11:41:59;9.52;;;8.60;;
13847;SDS011;6994;49.752;6.094;2022-08-19T11:44:26;8.48;;;7.78;;
13847;SDS011;6994;49.752;6.094;2022-08-19T11:46:53;7.90;;;7.30;;
13847;SDS011;6994;49.752;6.094;2022-08-19T11:49:21;7.45;;;6.85;;
13847;SDS011;6994;49.752;6.094;2022-08-19T11:51:48;7.30;;;6.68;;
13847;SDS011;6994;49.752;6.094;2022-08-19T11:54:16;7.60;;;6.95;;
13847;SDS011;6994;49.752;6.094;2022-08-19T11:56:43;8.65;;;7.85;;
13847;SDS011;6994;49.752;6.094;2022-08-19T11:59:10;6.12;;;5.57;;
13847;SDS011;6994;49.752;6.094;2022-08-19T12:01:37;6.65;;;6.15;;
13847;SDS011;6994;49.752;6.094;2022-08-19T12:04:04;6.68;;;6.12;;
13847;SDS011;6994;49.752;6.094;2022-08-19T12:06:32;5.75;;;5.25;;
13847;SDS011;6994;49.752;6.094;2022-08-19T12:09:00;6.15;;;5.65;;
13847;SDS011;6994;49.752;6.094;2022-08-19T12:11:26;5.30;;;4.90;;
13847;SDS011;6994;49.752;6.094;2022-08-19T12:13:54;5.93;;;5.43;;
13847;SDS011;6994;49.752;6.094;2022-08-19T12:16:24;8.32;;;7.10;;
13847;SDS011;6994;49.752;6.094;2022-08-19T12:18:50;6.55;;;5.95;;
13847;SDS011;6994;49.752;6.094;2022-08-19T12:21:22;6.85;;;6.15;;
13847;SDS011;6994;49.752;6.094;2022-08-19T12:23:50;6.55;;;5.90;;
13847;SDS011;6994;49.752;6.094;2022-08-19T12:26:18;8.50;;;6.62;;
13847;SDS011;6994;49.752;6.094;2022-08-19T12:28:45;8.65;;;7.57;;
13847;SDS011;6994;49.752;6.094;2022-08-19T12:31:12;7.25;;;6.55;;
13847;SDS011;6994;49.752;6.094;2022-08-19T12:33:40;7.07;;;6.37;;
13847;SDS011;6994;49.752;6.094;2022-08-19T12:36:07;8.13;;;7.37;;
13847;SDS011;6994;49.752;6.094;2022-08-19T12:38:34;6.47;;;5.87;;
13847;SDS011;6994;49.752;6.094;2022-08-19T12:41:01;6.93;;;4.60;;
13847;SDS011;6994;49.752;6.094;2022-08-19T12:43:28;6.70;;;5.00;;
13847;SDS011;6994;49.752;6.094;2022-08-19T12:45:55;6.00;;;5.03;;
13847;SDS011;6994;49.752;6.094;2022-08-19T12:48:22;7.10;;;4.75;;
13847;SDS011;6994;49.752;6.094;2022-08-19T12:50:50;5.40;;;4.90;;
13847;SDS011;6994;49.752;6.094;2022-08-19T12:53:17;6.35;;;3.83;;
13847;SDS011;6994;49.752;6.094;2022-08-19T12:55:44;6.03;;;4.10;;
13847;SDS011;6994;49.752;6.094;2022-08-19T12:58:11;4.70;;;3.87;;
13847;SDS011;6994;49.752;6.094;2022-08-19T13:00:39;4.05;;;3.75;;
13847;SDS011;6994;49.752;6.094;2022-08-19T13:03:06;3.75;;;3.45;;
13847;SDS011;6994;49.752;6.094;2022-08-19T13:05:33;2.65;;;2.45;;
13847;SDS011;6994;49.752;6.094;2022-08-19T13:08:00;4.07;;;2.60;;
13847;SDS011;6994;49.752;6.094;2022-08-19T13:10:29;2.87;;;2.67;;
13847;SDS011;6994;49.752;6.094;2022-08-19T13:12:55;2.30;;;2.20;;
13847;SDS011;6994;49.752;6.094;2022-08-19T13:15:22;5.03;;;1.90;;
13847;SDS011;6994;49.752;6.094;2022-08-19T13:17:49;2.75;;;2.08;;
13847;SDS011;6994;49.752;6.094;2022-08-19T13:20:17;2.40;;;2.20;;
13847;SDS011;6994;49.752;6.094;2022-08-19T13:22:43;2.35;;;2.15;;
13847;SDS011;6994;49.752;6.094;2022-08-19T13:25:11;2.28;;;2.17;;
13847;SDS011;6994;49.752;6.094;2022-08-19T13:27:38;2.08;;;1.87;;
13847;SDS011;6994;49.752;6.094;2022-08-19T13:30:06;2.10;;;1.90;;
13847;SDS011;6994;49.752;6.094;2022-08-19T13:32:50;4.03;;;1.80;;
13847;SDS011;6994;49.752;6.094;2022-08-19T13:35:36;2.37;;;1.70;;
13847;SDS011;6994;49.752;6.094;2022-08-19T13:38:04;1.75;;;1.50;;
13847;SDS011;6994;49.752;6.094;2022-08-19T13:40:31;1.17;;;1.17;;
13847;SDS011;6994;49.752;6.094;2022-08-19T13:42:58;1.50;;;1.40;;
13847;SDS011;6994;49.752;6.094;2022-08-19T13:45:26;1.42;;;1.33;;
13847;SDS011;6994;49.752;6.094;2022-08-19T13:47:53;1.85;;;0.80;;
13847;SDS011;6994;49.752;6.094;2022-08-19T13:50:21;1.40;;;0.80;;
13847;SDS011;6994;49.752;6.094;2022-08-19T13:52:47;1.42;;;0.90;;
13847;SDS011;6994;49.752;6.094;2022-08-19T13:55:14;1.83;;;0.90;;
13847;SDS011;6994;49.752;6.094;2022-08-19T13:57:41;0.75;;;0.73;;
13847;SDS011;6994;49.752;6.094;2022-08-19T14:00:10;3.15;;;0.80;;
13847;SDS011;6994;49.752;6.094;2022-08-19T14:02:36;1.02;;;0.80;;
13847;SDS011;6994;49.752;6.094;2022-08-19T14:05:05;0.62;;;0.60;;
13847;SDS011;6994;49.752;6.094;2022-08-19T14:07:31;1.02;;;0.70;;
13847;SDS011;6994;49.752;6.094;2022-08-19T14:09:58;3.78;;;1.00;;
13847;SDS011;6994;49.752;6.094;2022-08-19T14:12:26;0.80;;;0.80;;
13847;SDS011;6994;49.752;6.094;2022-08-19T14:14:53;0.90;;;0.90;;
13847;SDS011;6994;49.752;6.094;2022-08-19T14:17:20;0.93;;;0.93;;
13847;SDS011;6994;49.752;6.094;2022-08-19T14:19:48;0.70;;;0.70;;
13847;SDS011;6994;49.752;6.094;2022-08-19T14:22:15;1.48;;;0.68;;
13847;SDS011;6994;49.752;6.094;2022-08-19T14:24:42;0.80;;;0.80;;
13847;SDS011;6994;49.752;6.094;2022-08-19T14:27:10;0.70;;;0.70;;
13847;SDS011;6994;49.752;6.094;2022-08-19T14:29:37;2.05;;;0.60;;
13847;SDS011;6994;49.752;6.094;2022-08-19T14:32:04;0.70;;;0.70;;
13847;SDS011;6994;49.752;6.094;2022-08-19T14:34:31;0.60;;;0.50;;
13847;SDS011;6994;49.752;6.094;2022-08-19T14:36:59;0.60;;;0.60;;
13847;SDS011;6994;49.752;6.094;2022-08-19T14:39:26;0.68;;;0.45;;
13847;SDS011;6994;49.752;6.094;2022-08-19T14:41:53;0.77;;;0.77;;
13847;SDS011;6994;49.752;6.094;2022-08-19T14:44:20;0.45;;;0.45;;
13847;SDS011;6994;49.752;6.094;2022-08-19T14:46:47;0.55;;;0.55;;